createdAt,value
2023-02-16T00:01:53.191Z,27.33
2023-02-16T00:06:56.618Z,27.55
2023-02-16T00:12:00.337Z,27.55
2023-02-16T00:17:04.047Z,26.58
2023-02-16T00:22:07.604Z,26.33
2023-02-16T00:27:15.509Z,25.70
2023-02-16T00:32:17.951Z,25.35
2023-02-16T00:37:20.569Z,29.02
2023-02-16T00:42:28.715Z,26.73
2023-02-16T00:47:34.351Z,26.55
2023-02-16T00:52:38.393Z,26.95
2023-02-16T00:57:45.956Z,27.13
2023-02-16T01:02:49.907Z,27.58
2023-02-16T01:07:52.548Z,28.27
2023-02-16T01:12:56.456Z,27.00
2023-02-16T01:17:58.839Z,28.55
2023-02-16T01:23:01.159Z,27.38
2023-02-16T01:28:18.084Z,27.60
2023-02-16T01:33:21.386Z,27.70
2023-02-16T01:38:26.698Z,27.95
2023-02-16T01:43:37.449Z,27.00
2023-02-16T01:48:41.162Z,25.98
2023-02-16T01:53:48.059Z,28.50
2023-02-16T01:58:59.076Z,28.83
2023-02-16T02:04:02.028Z,27.92
2023-02-16T02:09:08.951Z,29.02
2023-02-16T02:14:18.402Z,26.40
2023-02-16T02:19:21.095Z,29.10
2023-02-16T02:25:01.022Z,28.35
2023-02-16T02:30:27.320Z,28.75
2023-02-16T02:35:42.850Z,28.70
2023-02-16T02:40:55.678Z,28.95
2023-02-16T02:46:05.624Z,30.67
2023-02-16T02:51:13.203Z,29.70
2023-02-16T02:56:17.478Z,30.13
2023-02-16T03:01:25.710Z,28.85
2023-02-16T03:06:34.431Z,29.20
2023-02-16T03:11:37.194Z,29.60
2023-02-16T03:16:45.071Z,28.88
2023-02-16T03:21:48.580Z,28.17
2023-02-16T03:26:55.544Z,29.50
2023-02-16T03:32:02.562Z,28.73
2023-02-16T03:37:06.633Z,29.40
2023-02-16T03:42:09.299Z,29.60
2023-02-16T03:47:16.527Z,28.15
2023-02-16T03:57:27.047Z,29.13
2023-02-16T04:02:33.559Z,28.80
2023-02-16T04:07:36.209Z,27.93
2023-02-16T04:12:38.752Z,29.40
2023-02-16T04:17:43.647Z,29.98
2023-02-16T04:22:47.145Z,29.92
2023-02-16T04:27:51.218Z,29.35
2023-02-16T04:32:56.133Z,30.45
2023-02-16T04:37:58.747Z,27.73
2023-02-16T04:43:01.316Z,28.70
2023-02-16T04:48:06.414Z,30.20
2023-02-16T04:53:09.084Z,30.92
2023-02-16T04:58:11.876Z,30.50
2023-02-16T05:03:18.617Z,29.60
2023-02-16T05:08:23.591Z,29.35
2023-02-16T05:13:26.331Z,29.83
2023-02-16T05:18:30.646Z,29.92
2023-02-16T05:23:33.303Z,29.50
2023-02-16T05:28:36.032Z,30.02
2023-02-16T05:33:40.591Z,27.42
2023-02-16T05:38:45.643Z,29.40
2023-02-16T05:43:50.092Z,28.55
2023-02-16T05:48:54.779Z,28.33
2023-02-16T05:53:58.459Z,29.48
2023-02-16T05:59:01.844Z,29.75
2023-02-16T06:04:06.499Z,30.10
2023-02-16T06:09:09.796Z,27.80
2023-02-16T06:14:15.195Z,31.38
2023-02-16T06:19:20.122Z,29.15
2023-02-16T06:24:23.017Z,30.20
2023-02-16T06:29:25.789Z,30.90
2023-02-16T06:34:30.057Z,30.30
2023-02-16T06:39:32.943Z,30.48
2023-02-16T06:44:35.494Z,29.58
2023-02-16T06:49:39.552Z,30.45
2023-02-16T06:54:43.333Z,30.00
2023-02-16T06:59:45.987Z,30.45
2023-02-16T07:05:04.453Z,30.50
2023-02-16T07:10:08.551Z,28.67
2023-02-16T07:15:11.167Z,31.10
2023-02-16T07:20:21.586Z,31.30
2023-02-16T07:25:27.181Z,31.48
2023-02-16T07:30:33.873Z,29.30
2023-02-16T07:35:47.676Z,30.30
2023-02-16T07:40:52.346Z,31.10
2023-02-16T07:46:11.623Z,30.80
2023-02-16T07:51:22.141Z,28.08
2023-02-16T07:56:27.529Z,31.17
2023-02-16T08:01:32.954Z,30.25
2023-02-16T08:06:40.463Z,28.50
2023-02-16T08:11:43.488Z,28.55
2023-02-16T08:16:46.885Z,30.05
2023-02-16T08:21:57.174Z,29.08
2023-02-16T08:27:12.260Z,29.67
2023-02-16T08:44:55.426Z,30.73
2023-02-16T08:49:57.850Z,29.40
2023-02-16T08:55:00.214Z,29.83
2023-02-16T09:00:05.501Z,29.63
2023-02-16T09:05:08.350Z,29.65
2023-02-16T09:10:11.249Z,28.98
2023-02-16T09:15:15.100Z,30.70
2023-02-16T09:20:17.684Z,30.23
2023-02-16T09:25:20.082Z,30.77
2023-02-16T09:30:23.898Z,27.90
2023-02-16T09:35:26.548Z,29.98
2023-02-16T09:40:29.093Z,31.60
2023-02-16T09:45:39.579Z,30.25
2023-02-16T09:50:53.734Z,26.42
2023-02-16T09:56:06.111Z,30.95
2023-02-16T10:01:19.594Z,30.42
2023-02-16T10:06:36.356Z,29.95
2023-02-16T10:11:43.773Z,28.90
2023-02-16T10:16:55.171Z,29.75
2023-02-16T10:22:02.897Z,29.48
2023-02-16T10:27:13.668Z,29.90
2023-02-16T10:32:25.626Z,29.73
2023-02-16T10:37:45.324Z,30.73
2023-02-16T10:42:53.546Z,28.00
2023-02-16T10:47:57.337Z,31.60
2023-02-16T10:53:04.365Z,30.90
2023-02-16T10:58:18.787Z,31.38
2023-02-16T11:03:28.425Z,28.20
2023-02-16T11:08:48.640Z,27.52
2023-02-16T11:13:59.961Z,30.17
2023-02-16T11:19:07.967Z,30.15
2023-02-16T11:24:13.474Z,31.42
2023-02-16T11:29:20.221Z,30.55
2023-02-16T11:34:32.289Z,31.60
2023-02-16T11:39:38.960Z,29.02
2023-02-16T11:44:44.656Z,31.15
2023-02-16T11:49:49.469Z,29.58
2023-02-16T11:54:53.804Z,30.35
2023-02-16T11:59:57.806Z,32.83
2023-02-16T12:05:18.235Z,31.50
2023-02-16T12:10:26.669Z,28.55
2023-02-16T12:15:38.933Z,32.00
2023-02-16T12:20:50.568Z,33.45
2023-02-16T12:26:06.813Z,29.38
2023-02-16T12:31:19.117Z,29.90
2023-02-16T12:36:45.352Z,28.77
2023-02-16T12:42:02.253Z,29.10
2023-02-16T12:47:09.546Z,31.73
2023-02-16T12:57:33.104Z,33.55
2023-02-16T13:02:39.692Z,31.08
2023-02-16T13:07:45.820Z,33.03
2023-02-16T13:12:50.901Z,31.83
2023-02-16T13:17:57.493Z,31.42
2023-02-16T13:23:28.982Z,32.10
2023-02-16T13:28:45.545Z,30.42
2023-02-16T13:34:13.710Z,30.02
2023-02-16T13:39:53.363Z,31.77
2023-02-16T13:44:58.584Z,31.35
2023-02-16T13:50:03.945Z,29.73
2023-02-16T13:55:23.675Z,29.00
2023-02-16T14:00:29.072Z,33.58
2023-02-16T14:05:37.797Z,30.42
2023-02-16T14:11:07.201Z,30.52
2023-02-16T14:16:12.257Z,31.95
2023-02-16T14:21:24.579Z,31.27
2023-02-16T14:26:29.162Z,28.05
2023-02-16T14:31:34.487Z,29.05
2023-02-16T14:37:10.106Z,28.95
2023-02-16T14:42:26.514Z,27.75
2023-02-16T14:47:37.673Z,30.13
2023-02-16T14:52:49.494Z,28.75
2023-02-16T14:58:28.930Z,29.35
2023-02-16T15:03:48.158Z,29.45
2023-02-16T15:08:59.964Z,28.77
2023-02-16T15:14:14.646Z,29.00
2023-02-16T15:19:46.527Z,31.10
2023-02-16T15:25:17.024Z,31.15
2023-02-16T15:36:09.762Z,30.10
2023-02-16T15:41:23.052Z,28.58
2023-02-16T15:53:29.070Z,31.33
2023-02-16T16:11:39.094Z,31.85
2023-02-16T16:22:42.033Z,30.67
2023-02-16T16:28:24.726Z,28.15
2023-02-16T16:33:56.717Z,28.08
2023-02-16T16:45:35.572Z,25.13
2023-02-16T16:56:38.968Z,28.00
2023-02-16T17:01:51.284Z,26.50
2023-02-16T17:06:53.667Z,27.83
2023-02-16T17:11:55.923Z,26.42
2023-02-16T17:16:59.740Z,27.27
2023-02-16T17:22:02.104Z,24.73
2023-02-16T17:27:04.471Z,26.00
2023-02-16T17:32:08.711Z,27.90
2023-02-16T17:37:11.266Z,28.20
2023-02-16T17:42:13.677Z,28.10
2023-02-16T17:47:18.132Z,30.80
2023-02-16T17:52:20.472Z,27.45
2023-02-16T17:57:22.854Z,26.85
2023-02-16T18:02:26.749Z,25.42
2023-02-16T18:07:29.127Z,26.55
2023-02-16T18:12:31.445Z,23.98
2023-02-16T18:17:35.228Z,26.88
2023-02-16T18:22:37.569Z,25.30
2023-02-16T18:27:39.925Z,25.65
2023-02-16T18:32:44.180Z,28.08
2023-02-16T18:37:47.424Z,26.90
2023-02-16T18:42:49.734Z,26.17
2023-02-16T18:47:53.737Z,23.05
2023-02-16T18:52:56.072Z,25.08
2023-02-16T18:57:58.484Z,25.17
2023-02-16T19:03:02.222Z,26.88
2023-02-16T19:08:04.873Z,24.17
2023-02-16T19:13:07.190Z,26.02
2023-02-16T19:18:11.025Z,19.88
2023-02-16T19:23:13.374Z,24.08
2023-02-16T19:28:18.497Z,24.17
2023-02-16T19:33:25.024Z,23.65
2023-02-16T19:38:30.395Z,26.53
2023-02-16T19:43:35.618Z,25.70
2023-02-16T19:48:41.951Z,25.02
2023-02-16T19:53:47.544Z,25.10
2023-02-16T19:58:50.653Z,24.48
2023-02-16T20:03:56.989Z,24.42
2023-02-16T20:09:00.305Z,24.55
2023-02-16T20:14:03.736Z,23.52
2023-02-16T20:19:07.566Z,24.50
2023-02-16T20:24:11.299Z,24.27
2023-02-16T20:29:15.039Z,24.35
2023-02-16T20:34:19.145Z,19.65
2023-02-16T20:39:22.850Z,22.38
2023-02-16T20:44:25.354Z,20.85
2023-02-16T20:49:29.250Z,20.08
2023-02-16T20:54:31.573Z,20.85
2023-02-16T20:59:34.010Z,18.85
2023-02-16T21:04:37.716Z,19.05
2023-02-16T21:09:40.123Z,19.08
2023-02-16T21:14:42.513Z,19.92
2023-02-16T21:19:46.431Z,17.23
2023-02-16T21:24:48.783Z,19.20
2023-02-16T21:29:51.120Z,17.58
2023-02-16T21:34:54.950Z,17.77
2023-02-16T21:39:57.398Z,16.60
2023-02-16T21:44:59.798Z,18.42
2023-02-16T21:50:03.661Z,17.65
2023-02-16T21:55:06.987Z,16.27
2023-02-16T22:00:14.240Z,13.35
2023-02-16T22:10:20.316Z,15.50
2023-02-16T22:15:23.306Z,11.93
2023-02-16T22:20:27.203Z,14.52
2023-02-16T22:25:29.504Z,13.20
2023-02-16T22:30:31.824Z,12.95
2023-02-16T22:35:35.718Z,13.23
2023-02-16T22:40:38.051Z,13.63
2023-02-16T22:45:40.389Z,12.57
2023-02-16T22:50:44.211Z,12.55
2023-02-16T22:55:46.529Z,10.18
2023-02-16T23:00:50.631Z,11.65
2023-02-16T23:05:54.472Z,11.10
2023-02-16T23:10:56.715Z,11.05
2023-02-16T23:16:04.966Z,10.50
2023-02-16T23:21:11.013Z,10.38
2023-02-16T23:26:13.828Z,9.68
2023-02-16T23:31:16.234Z,10.23
2023-02-16T23:36:20.118Z,10.00
2023-02-16T23:41:22.458Z,9.07
2023-02-16T23:46:25.594Z,8.57
2023-02-16T23:51:29.516Z,9.18
2023-02-16T23:56:31.916Z,7.95
